Time;durP1;ratioP1;P1;durP2;ratioP2;P2;SDS_P1;SDS_P2;PMS_P1;PMS_P2;Temp;Humidity;BMP_temperature;BMP_pressure;BME280_temperature;BME280_humidity;BME280_pressure;Samples;Min_cycle;Max_cycle;Signal;HPM_P1;HPM_P2
2021/06/21 00:01:32;;;;;;;7.50;6.38;;;;;;;23.46;72.90;99847.88;3555051;40;20571;-51
2021/06/21 00:03:59;;;;;;;8.27;6.43;;;;;;;23.51;72.92;99838.09;3555866;40;20058;-55
2021/06/21 00:06:26;;;;;;;11.63;7.22;;;;;;;23.38;73.27;99829.91;3554976;40;20113;-50
2021/06/21 00:08:54;;;;;;;8.60;6.22;;;;;;;23.32;73.84;99822.31;3556117;40;20053;-52
2021/06/21 00:11:21;;;;;;;8.85;6.18;;;;;;;23.25;73.95;99807.78;3555405;40;20049;-51
2021/06/21 00:13:48;;;;;;;13.35;6.90;;;;;;;23.19;74.78;99814.13;3554638;40;20133;-49
2021/06/21 00:16:16;;;;;;;12.65;7.00;;;;;;;23.15;75.54;99815.16;3555317;40;20101;-51
2021/06/21 00:18:43;;;;;;;8.50;6.68;;;;;;;23.38;74.39;99799.38;3554788;40;20081;-57
2021/06/21 00:21:10;;;;;;;8.13;6.57;;;;;;;23.27;74.97;99799.00;3560586;40;20095;-52
2021/06/21 00:23:37;;;;;;;10.50;7.05;;;;;;;23.22;75.31;99794.88;3554616;40;20094;-50
2021/06/21 00:26:04;;;;;;;10.57;6.85;;;;;;;23.38;75.05;99788.09;3555506;40;20050;-50
2021/06/21 00:28:31;;;;;;;11.88;7.15;;;;;;;23.31;75.36;99782.28;3554369;40;20096;-54
2021/06/21 00:30:58;;;;;;;7.47;6.72;;;;;;;23.51;74.42;99775.38;3555545;40;20069;-51
2021/06/21 00:33:25;;;;;;;7.68;6.88;;;;;;;23.32;75.92;99768.28;3554580;40;20057;-57
2021/06/21 00:35:52;;;;;;;9.18;6.97;;;;;;;23.42;75.42;99750.47;3555275;40;20099;-52
2021/06/21 00:38:19;;;;;;;8.30;7.22;;;;;;;23.36;76.29;99758.56;3554347;40;20358;-47
2021/06/21 00:40:46;;;;;;;10.20;7.68;;;;;;;23.33;76.68;99754.31;3554724;40;20385;-53
2021/06/21 00:43:13;;;;;;;10.93;7.60;;;;;;;23.24;77.29;99751.25;3554718;40;20081;-55
2021/06/21 00:45:40;;;;;;;8.95;7.40;;;;;;;23.36;76.80;99754.19;3554509;40;20514;-52
2021/06/21 00:48:08;;;;;;;10.18;7.80;;;;;;;23.23;77.28;99753.00;3554992;40;20368;-54
2021/06/21 00:50:35;;;;;;;9.70;8.45;;;;;;;23.23;78.01;99753.00;3554262;40;20080;-52
2021/06/21 00:53:02;;;;;;;12.18;8.90;;;;;;;23.39;76.64;99748.00;3555357;40;20045;-50
2021/06/21 00:55:30;;;;;;;12.32;9.18;;;;;;;23.23;78.25;99757.38;3554346;40;20432;-49
2021/06/21 00:57:57;;;;;;;12.10;10.68;;;;;;;23.00;80.32;99755.72;3558073;40;20097;-48
2021/06/21 01:00:26;;;;;;;11.98;10.77;;;;;;;23.17;79.96;99763.72;3554276;40;20340;-55
2021/06/21 01:02:54;;;;;;;11.68;10.02;;;;;;;23.14;80.19;99771.66;3555130;40;20312;-54
2021/06/21 01:05:26;;;;;;;13.90;11.05;;;;;;;23.17;79.72;99763.72;3544650;40;20415;-49
2021/06/21 01:07:54;;;;;;;17.27;11.65;;;;;;;23.07;80.36;99763.25;3548988;40;20047;-51
2021/06/21 01:10:29;;;;;;;12.38;11.13;;;;;;;23.16;80.21;99762.03;3544409;40;20400;-51
2021/06/21 01:13:28;;;;;;;13.88;12.02;;;;;;;23.04;81.05;99765.97;3545330;40;20066;-52
2021/06/21 01:16:14;;;;;;;14.32;11.75;;;;;;;22.98;81.39;99771.44;3544799;40;20083;-53
2021/06/21 01:18:51;;;;;;;13.13;11.82;;;;;;;23.13;81.09;99763.00;3544231;40;20099;-50
2021/06/21 01:21:49;;;;;;;13.98;12.57;;;;;;;23.00;81.76;99764.38;3547391;40;20034;-49
2021/06/21 01:24:53;;;;;;;15.10;12.88;;;;;;;22.99;82.22;99754.88;3548013;40;20692;-52
2021/06/21 01:27:35;;;;;;;;;;;;;;;22.97;82.81;99761.94;3546347;40;20365;-51
2021/06/21 01:30:11;;;;;;;14.38;12.27;;;;;;;23.43;80.48;99774.84;3546726;40;19949;-52
2021/06/21 01:32:49;;;;;;;16.15;12.20;;;;;;;23.24;81.09;99778.22;3545766;40;20086;-52
2021/06/21 01:35:22;;;;;;;15.75;13.23;;;;;;;23.16;81.85;99768.97;3545867;40;20098;-53
2021/06/21 01:37:54;;;;;;;15.90;13.30;;;;;;;23.10;82.12;99768.31;3551464;40;20097;-50
2021/06/21 01:40:22;;;;;;;15.20;13.43;;;;;;;23.28;81.50;99763.25;3555554;40;20054;-50
2021/06/21 01:42:57;;;;;;;14.75;13.15;;;;;;;23.27;81.74;99767.66;3552293;40;20042;-48
2021/06/21 01:45:26;;;;;;;15.05;13.55;;;;;;;23.24;82.20;99778.22;3555724;40;20081;-52
2021/06/21 01:47:54;;;;;;;14.77;13.23;;;;;;;23.28;81.55;99778.94;3556521;40;20045;-52
2021/06/21 01:50:23;;;;;;;16.55;14.55;;;;;;;23.56;81.36;99791.69;3546232;40;20093;-49
2021/06/21 01:52:58;;;;;;;16.20;14.52;;;;;;;23.33;81.61;99797.88;3546489;40;20086;-51
2021/06/21 01:55:27;;;;;;;16.55;14.77;;;;;;;23.21;83.12;99798.41;3552544;40;20170;-51
2021/06/21 01:57:56;;;;;;;17.85;15.77;;;;;;;22.96;85.72;99803.75;3546684;40;20419;-55
2021/06/21 02:00:24;;;;;;;18.70;16.33;;;;;;;22.94;86.70;99816.03;3549839;40;20230;-55
2021/06/21 02:02:53;;;;;;;19.00;16.35;;;;;;;23.01;86.74;99826.16;3546444;40;20455;-50
2021/06/21 02:05:20;;;;;;;18.88;17.02;;;;;;;23.42;84.95;99834.09;3550006;40;20090;-53
2021/06/21 02:07:51;;;;;;;21.20;16.50;;;;;;;23.50;84.17;99844.22;3545965;40;20328;-52
2021/06/21 02:10:19;;;;;;;18.83;16.98;;;;;;;23.44;84.70;99845.34;3545979;40;20101;-49
2021/06/21 02:12:48;;;;;;;18.83;16.92;;;;;;;23.29;86.06;99852.00;3546281;40;20094;-50
2021/06/21 02:15:16;;;;;;;21.60;17.98;;;;;;;23.41;84.88;99855.91;3546098;40;20101;-52
2021/06/21 02:17:44;;;;;;;19.85;17.85;;;;;;;23.09;87.02;99860.66;3545426;40;20062;-53
2021/06/21 02:20:14;;;;;;;19.50;17.38;;;;;;;22.99;88.01;99854.09;3548647;40;20070;-55
2021/06/21 02:22:41;;;;;;;19.27;17.20;;;;;;;22.85;88.84;99836.31;3545714;40;20078;-56
2021/06/21 02:25:09;;;;;;;21.05;17.92;;;;;;;23.15;87.55;99822.97;3546186;40;20483;-51
2021/06/21 02:27:37;;;;;;;20.95;18.77;;;;;;;22.99;89.60;99832.34;3545534;40;20271;-51
2021/06/21 02:30:11;;;;;;;21.63;19.27;;;;;;;23.59;86.61;99844.69;3546434;40;20049;-55
2021/06/21 02:32:42;;;;;;;22.33;20.05;;;;;;;23.78;84.98;99842.19;3545214;40;20402;-53
2021/06/21 02:35:10;;;;;;;21.58;19.42;;;;;;;23.22;88.66;99850.56;3549140;40;20069;-50
2021/06/21 02:37:38;;;;;;;21.83;19.70;;;;;;;23.49;87.83;99864.28;3545591;40;20059;-51
2021/06/21 02:40:08;;;;;;;23.42;21.00;;;;;;;23.62;86.90;99923.00;3546454;40;20089;-48
2021/06/21 02:42:36;;;;;;;22.02;19.88;;;;;;;23.22;88.24;99990.78;3545439;40;20073;-55
2021/06/21 02:45:04;;;;;;;20.63;18.40;;;;;;;23.24;85.60;99989.81;3546199;40;20056;-53
2021/06/21 02:47:31;;;;;;;18.00;14.68;;;;;;;23.25;82.16;99965.41;3546417;40;20050;-53
2021/06/21 02:49:58;;;;;;;22.95;18.25;;;;;;;23.27;83.25;99981.03;3588923;23;20456;-51
2021/06/21 02:52:37;;;;;;;20.63;16.80;;;;;;;23.30;82.68;99978.31;3563710;40;20128;-54
2021/06/21 02:55:17;;;;;;;19.35;17.25;;;;;;;23.18;82.71;99942.19;3563567;40;20064;-54
2021/06/21 02:57:54;;;;;;;21.67;17.30;;;;;;;23.04;84.01;99925.28;3563286;40;20087;-59
2021/06/21 03:00:22;;;;;;;20.60;16.63;;;;;;;23.17;83.12;99932.66;3558279;40;20094;-50
2021/06/21 03:02:52;;;;;;;19.48;17.38;;;;;;;23.47;81.08;99934.06;3554766;40;20098;-57
2021/06/21 03:05:20;;;;;;;18.60;16.45;;;;;;;23.03;83.70;99925.34;3544566;40;20082;-58
2021/06/21 03:07:49;;;;;;;21.40;18.02;;;;;;;22.93;84.44;99917.00;3547025;40;20576;-59
2021/06/21 03:10:19;;;;;;;18.90;17.10;;;;;;;23.05;84.19;99910.44;3546280;40;20058;-55
2021/06/21 03:12:48;;;;;;;17.98;16.17;;;;;;;23.14;84.08;99920.53;3543777;40;20102;-60
2021/06/21 03:15:20;;;;;;;19.75;16.70;;;;;;;23.26;83.88;99903.56;3544954;40;20113;-54
2021/06/21 03:17:51;;;;;;;20.00;17.95;;;;;;;23.00;86.18;99908.00;3545064;40;20293;-55
2021/06/21 03:20:19;;;;;;;23.10;18.70;;;;;;;22.96;87.03;99910.78;3544419;40;20094;-51
2021/06/21 03:22:59;;;;;;;23.20;19.75;;;;;;;23.06;87.61;99904.31;3544922;40;20038;-57
2021/06/21 03:25:29;;;;;;;22.33;20.05;;;;;;;23.02;87.96;99908.81;3561682;40;20143;-57
2021/06/21 03:28:05;;;;;;;21.33;19.08;;;;;;;23.00;88.76;99904.56;3564541;40;20064;-57
2021/06/21 03:30:32;;;;;;;;;;;;;;;23.11;87.68;99891.94;3564667;40;20065;-50
2021/06/21 03:32:59;;;;;;;21.85;19.48;;;;;;;22.90;88.85;99880.56;3564353;40;19977;-52
2021/06/21 03:35:28;;;;;;;22.52;20.25;;;;;;;22.73;90.00;99869.88;3564265;40;20066;-55
2021/06/21 03:37:55;;;;;;;21.80;19.63;;;;;;;23.07;88.69;99862.50;3563887;40;20096;-52
2021/06/21 03:40:22;;;;;;;21.88;19.58;;;;;;;22.87;89.53;99871.03;3564605;40;20064;-59
2021/06/21 03:42:49;;;;;;;23.48;20.55;;;;;;;22.87;89.16;99867.56;3564320;40;20088;-54
2021/06/21 03:45:16;;;;;;;21.33;19.08;;;;;;;23.06;88.12;99870.34;3563955;40;20084;-54
2021/06/21 03:47:44;;;;;;;21.90;17.58;;;;;;;23.06;86.97;99868.63;3562690;40;20091;-51
2021/06/21 03:50:13;;;;;;;18.17;16.17;;;;;;;23.11;86.32;99858.00;3559671;40;20415;-52
2021/06/21 03:52:40;;;;;;;18.48;16.55;;;;;;;22.78;87.57;99854.88;3559874;40;20081;-56
2021/06/21 03:55:08;;;;;;;19.83;15.93;;;;;;;22.98;87.17;99860.22;3560526;40;20421;-55
2021/06/21 03:57:44;;;;;;;17.73;14.18;;;;;;;23.01;86.71;99849.66;3558619;40;20053;-58
2021/06/21 04:00:27;;;;;;;15.23;13.43;;;;;;;23.10;86.16;99849.28;3559673;40;20041;-53
2021/06/21 04:03:07;;;;;;;15.30;13.55;;;;;;;23.08;85.61;99853.75;3551618;40;20395;-52
2021/06/21 04:05:41;;;;;;;14.88;13.38;;;;;;;22.87;87.00;99844.94;3559463;40;20320;-55
2021/06/21 04:08:14;;;;;;;15.98;14.35;;;;;;;22.63;88.13;99841.50;3560726;40;20097;-54
2021/06/21 04:10:45;;;;;;;17.88;14.52;;;;;;;22.69;88.78;99829.13;3562526;40;20447;-55
2021/06/21 04:13:16;;;;;;;17.85;14.18;;;;;;;22.82;88.26;99825.97;3561867;40;20034;-50
2021/06/21 04:15:45;;;;;;;17.33;15.50;;;;;;;22.82;88.41;99802.50;3559343;40;20097;-57
2021/06/21 04:18:15;;;;;;;16.50;14.85;;;;;;;22.83;88.93;99804.22;3557682;40;20050;-55
2021/06/21 04:20:47;;;;;;;18.58;15.82;;;;;;;23.00;87.67;99798.34;3559432;40;20395;-55
2021/06/21 04:23:15;;;;;;;17.52;15.80;;;;;;;22.91;89.02;99793.47;3558351;40;20057;-47
2021/06/21 04:25:44;;;;;;;18.08;15.23;;;;;;;23.40;86.69;99788.91;3558239;40;20038;-52
2021/06/21 04:28:12;;;;;;;19.85;16.60;;;;;;;23.22;87.04;99774.81;3563405;40;20192;-50
2021/06/21 04:30:40;;;;;;;20.20;15.95;;;;;;;23.40;86.59;99780.22;3563645;40;20085;-53
2021/06/21 04:33:08;;;;;;;18.83;16.95;;;;;;;23.35;86.85;99769.94;3563578;40;20364;-50
2021/06/21 04:35:36;;;;;;;18.85;17.05;;;;;;;23.44;86.82;99771.34;3563671;40;20041;-60
2021/06/21 04:38:03;;;;;;;19.40;17.48;;;;;;;23.65;85.25;99772.19;3561802;40;20159;-49
2021/06/21 04:40:34;;;;;;;19.83;18.13;;;;;;;23.55;86.69;99761.25;3559235;40;20054;-55
2021/06/21 04:43:03;;;;;;;20.25;18.08;;;;;;;23.47;87.24;99753.72;3563045;40;20058;-54
2021/06/21 04:45:31;;;;;;;20.83;18.70;;;;;;;23.59;86.29;99753.22;3562916;40;20112;-51
2021/06/21 04:47:59;;;;;;;25.13;18.08;;;;;;;23.72;85.70;99747.50;3561853;40;20299;-55
2021/06/21 04:50:37;;;;;;;21.35;18.30;;;;;;;23.98;84.65;99746.34;3562694;40;20101;-51
2021/06/21 04:53:05;;;;;;;19.60;17.55;;;;;;;23.92;83.78;99742.22;3562824;40;20092;-50
2021/06/21 04:55:34;;;;;;;23.38;20.95;;;;;;;23.48;85.40;99731.94;3558813;40;20339;-59
2021/06/21 04:58:03;;;;;;;22.55;20.23;;;;;;;23.56;85.66;99742.03;3554959;40;20366;-47
2021/06/21 05:00:31;;;;;;;22.73;20.38;;;;;;;23.58;85.01;99740.22;3558873;40;20040;-48
2021/06/21 05:02:58;;;;;;;23.48;21.27;;;;;;;23.75;84.57;99737.75;3561074;40;20057;-49
2021/06/21 05:05:27;;;;;;;23.05;20.65;;;;;;;23.97;83.24;99724.56;3562177;40;20084;-52
2021/06/21 05:07:55;;;;;;;23.13;20.88;;;;;;;23.80;83.75;99717.50;3559842;40;20311;-54
2021/06/21 05:10:25;;;;;;;22.35;20.08;;;;;;;23.93;84.10;99716.94;3559226;40;20053;-49
2021/06/21 05:12:52;;;;;;;24.42;20.58;;;;;;;23.61;84.13;99696.50;3559678;40;20045;-55
2021/06/21 05:15:19;;;;;;;24.23;20.40;;;;;;;23.35;85.96;99709.84;3564336;40;20139;-55
2021/06/21 05:17:47;;;;;;;23.73;21.30;;;;;;;23.22;87.02;99700.84;3563991;40;20415;-53
2021/06/21 05:20:15;;;;;;;24.95;22.20;;;;;;;23.16;88.38;99693.25;3563826;40;20065;-51
2021/06/21 05:22:42;;;;;;;24.25;21.90;;;;;;;23.13;87.04;99692.47;3564109;40;20076;-56
2021/06/21 05:25:10;;;;;;;24.80;22.20;;;;;;;23.46;86.19;99685.88;3563345;40;20046;-51
2021/06/21 05:27:37;;;;;;;25.27;21.85;;;;;;;23.62;83.95;99698.22;3563751;40;20355;-47
2021/06/21 05:30:05;;;;;;;25.80;21.67;;;;;;;23.46;84.88;99698.94;3564043;40;20049;-57
2021/06/21 05:32:33;;;;;;;22.70;20.45;;;;;;;23.71;83.03;99694.38;3564852;40;20068;-53
2021/06/21 05:35:00;;;;;;;23.90;21.17;;;;;;;23.52;83.65;99699.50;3566173;40;20447;-54
2021/06/21 05:37:27;;;;;;;22.35;19.83;;;;;;;23.40;83.74;99705.28;3557392;40;20061;-53
2021/06/21 05:39:54;;;;;;;22.40;20.00;;;;;;;23.49;83.61;99715.34;3566779;40;20061;-56
2021/06/21 05:42:21;;;;;;;21.67;19.40;;;;;;;23.78;82.08;99716.69;3562610;40;20078;-58
2021/06/21 05:44:49;;;;;;;22.10;19.85;;;;;;;23.89;81.90;99716.22;3565411;40;20059;-50
2021/06/21 05:47:17;;;;;;;22.90;20.48;;;;;;;23.31;84.71;99711.75;3565227;40;20053;-57
2021/06/21 05:49:44;;;;;;;25.85;19.40;;;;;;;23.46;84.79;99714.63;3565158;40;20105;-54
2021/06/21 05:52:22;;;;;;;20.98;18.73;;;;;;;23.82;82.95;99723.50;3606939;39;20133;-56
2021/06/21 05:54:50;;;;;;;23.38;20.70;;;;;;;23.42;84.26;99724.34;3598213;39;20108;-54
2021/06/21 05:57:17;;;;;;;23.92;21.15;;;;;;;23.63;84.90;99725.19;3595113;39;20100;-54
2021/06/21 05:59:45;;;;;;;22.42;20.05;;;;;;;23.70;83.02;99720.56;3597928;39;20108;-62
2021/06/21 06:02:12;;;;;;;26.45;20.42;;;;;;;24.37;79.68;99739.34;3588976;39;20063;-57
2021/06/21 06:04:39;;;;;;;23.23;20.85;;;;;;;24.59;78.84;99754.03;3584619;39;20049;-53
2021/06/21 06:07:06;;;;;;;25.67;22.02;;;;;;;24.72;77.05;99759.53;3584460;39;20092;-51
2021/06/21 06:09:36;;;;;;;25.65;20.83;;;;;;;24.31;79.78;99768.38;3583879;39;20057;-56
2021/06/21 06:12:03;;;;;;;24.30;21.70;;;;;;;24.55;78.55;99771.66;3584758;39;20044;-54
2021/06/21 06:14:32;;;;;;;24.85;21.10;;;;;;;24.63;78.30;99768.66;3583692;39;20092;-53
2021/06/21 06:17:00;;;;;;;23.83;21.38;;;;;;;24.70;77.86;99770.09;3584747;39;20065;-57
2021/06/21 06:19:27;;;;;;;24.60;22.10;;;;;;;24.90;75.64;99783.06;3583608;39;20053;-55
2021/06/21 06:21:54;;;;;;;24.88;21.80;;;;;;;25.36;75.78;99796.56;3584522;39;20219;-57
2021/06/21 06:24:21;;;;;;;25.52;22.00;;;;;;;25.09;75.40;99801.38;3596392;39;20055;-56
2021/06/21 06:26:48;;;;;;;25.35;21.83;;;;;;;25.63;73.54;99809.22;3593871;39;20104;-55
2021/06/21 06:29:16;;;;;;;26.25;20.90;;;;;;;25.37;74.12;99813.13;3596368;39;20972;-53
2021/06/21 06:31:46;;;;;;;27.30;23.00;;;;;;;25.57;72.99;99820.03;3592942;39;20460;-54
2021/06/21 06:34:15;;;;;;;31.35;25.30;;;;;;;25.58;74.35;99819.94;3596241;39;20138;-56
2021/06/21 06:36:43;;;;;;;24.73;21.60;;;;;;;25.73;71.08;99826.19;3593277;39;20092;-57
2021/06/21 06:39:10;;;;;;;22.50;20.33;;;;;;;25.56;71.54;99827.06;3592893;39;20412;-51
2021/06/21 06:41:37;;;;;;;23.52;21.13;;;;;;;25.44;71.89;99822.41;3592950;39;20060;-60
2021/06/21 06:44:05;;;;;;;22.85;20.65;;;;;;;25.60;71.79;99831.19;3593694;39;20078;-54
2021/06/21 06:46:32;;;;;;;22.00;19.77;;;;;;;25.43;71.91;99819.88;3593219;39;20060;-53
2021/06/21 06:49:00;;;;;;;22.70;20.35;;;;;;;25.31;73.17;99818.69;3595931;39;20063;-53
2021/06/21 06:51:32;;;;;;;24.10;20.73;;;;;;;25.90;70.83;99820.13;3594817;39;20067;-53
2021/06/21 06:54:04;;;;;;;23.55;18.98;;;;;;;25.91;70.25;99824.44;3594720;39;20387;-57
2021/06/21 06:59:18;;;;;;;23.67;21.27;;;;;;;26.33;68.31;99813.44;3592908;39;20056;-56
2021/06/21 07:01:46;;;;;;;24.63;19.10;;;;;;;26.71;69.76;99823.69;3592117;39;20133;-54
2021/06/21 07:04:14;;;;;;;21.85;19.60;;;;;;;26.67;69.10;99824.81;3586700;39;20055;-56
2021/06/21 07:06:41;;;;;;;29.00;19.33;;;;;;;26.78;68.24;99816.31;3586089;40;20072;-53
2021/06/21 07:09:09;;;;;;;22.50;19.83;;;;;;;27.19;68.11;99821.91;3586882;39;20094;-53
2021/06/21 07:11:37;;;;;;;23.35;19.90;;;;;;;27.35;65.49;99813.97;3588197;39;20390;-50
2021/06/21 07:14:05;;;;;;;22.85;20.45;;;;;;;27.55;63.74;99812.84;3587237;39;20542;-55
2021/06/21 07:16:34;;;;;;;22.73;20.48;;;;;;;27.17;64.80;99821.97;3590690;39;20118;-59
2021/06/21 07:19:01;;;;;;;22.08;19.73;;;;;;;27.40;65.21;99825.91;3589686;40;20470;-59
2021/06/21 07:21:29;;;;;;;22.77;20.60;;;;;;;27.36;64.49;99815.66;3586720;40;20057;-54
2021/06/21 07:23:56;;;;;;;25.13;20.77;;;;;;;27.15;68.05;99817.75;3587362;40;20059;-53
2021/06/21 07:26:24;;;;;;;22.48;20.42;;;;;;;27.51;65.45;99821.84;3586155;40;20052;-60
2021/06/21 07:28:51;;;;;;;23.95;20.50;;;;;;;27.54;65.00;99827.75;3586285;40;20510;-52
2021/06/21 07:31:19;;;;;;;24.58;20.63;;;;;;;28.04;62.45;99826.56;3586125;39;20056;-55
2021/06/21 07:33:50;;;;;;;21.00;18.77;;;;;;;28.10;62.82;99830.59;3586863;40;20060;-51
2021/06/21 07:36:17;;;;;;;22.33;20.02;;;;;;;28.11;63.28;99829.69;3586224;39;20079;-49
2021/06/21 07:38:44;;;;;;;23.02;20.83;;;;;;;27.83;62.30;99828.72;3585779;40;20059;-57
2021/06/21 07:41:11;;;;;;;22.13;19.83;;;;;;;28.80;60.72;99833.31;3589066;39;20044;-48
2021/06/21 07:43:39;;;;;;;21.33;19.23;;;;;;;29.07;59.85;99825.44;3585796;40;20230;-53
2021/06/21 07:46:07;;;;;;;21.98;19.63;;;;;;;29.08;58.18;99833.28;3585753;40;20048;-49
2021/06/21 07:48:40;;;;;;;20.30;18.27;;;;;;;28.87;58.22;99842.53;3585609;40;20096;-51
2021/06/21 07:51:09;;;;;;;20.55;18.35;;;;;;;28.80;58.66;99846.50;3585994;40;20438;-56
2021/06/21 07:53:38;;;;;;;22.25;19.85;;;;;;;29.12;58.31;99847.94;3588149;39;20067;-54
2021/06/21 07:56:08;;;;;;;19.50;16.33;;;;;;;29.49;55.30;99850.81;3590082;39;20060;-50
2021/06/21 07:58:39;;;;;;;19.70;16.55;;;;;;;29.02;55.75;99838.06;3585500;40;20368;-53
2021/06/21 08:01:08;;;;;;;17.05;15.35;;;;;;;29.16;55.60;99841.50;3586286;40;20332;-57
2021/06/21 08:03:39;;;;;;;15.48;13.95;;;;;;;29.99;53.58;99841.28;3586015;40;20161;-49
2021/06/21 08:06:09;;;;;;;19.35;14.15;;;;;;;30.15;52.59;99847.25;3584751;40;20077;-54
2021/06/21 08:08:36;;;;;;;15.63;13.90;;;;;;;30.79;53.70;99851.63;3585599;40;20076;-51
2021/06/21 08:11:03;;;;;;;12.43;11.30;;;;;;;30.61;49.28;99845.81;3586911;40;20075;-53
2021/06/21 08:13:30;;;;;;;13.23;10.55;;;;;;;30.89;50.63;99852.63;3585846;40;20057;-53
2021/06/21 08:15:58;;;;;;;15.38;10.70;;;;;;;30.86;50.46;99860.78;3587246;40;20410;-58
2021/06/21 08:18:25;;;;;;;11.95;10.00;;;;;;;31.00;49.72;99855.34;3585638;40;20104;-53
2021/06/21 08:20:52;;;;;;;12.20;9.98;;;;;;;31.17;48.56;99862.88;3586440;40;20088;-48
2021/06/21 08:23:20;;;;;;;12.25;10.20;;;;;;;30.82;49.91;99851.38;3585749;39;20414;-51
2021/06/21 08:25:47;;;;;;;11.05;9.65;;;;;;;30.88;49.41;99850.97;3586308;40;20052;-54
2021/06/21 08:28:15;;;;;;;10.95;8.02;;;;;;;30.65;50.45;99849.94;3590247;39;20059;-55
2021/06/21 08:30:46;;;;;;;11.50;8.52;;;;;;;30.36;50.13;99844.88;3590255;39;20454;-57
2021/06/21 08:33:15;;;;;;;11.88;8.55;;;;;;;30.44;50.18;99857.56;3587271;39;20341;-50
2021/06/21 08:35:44;;;;;;;13.68;9.77;;;;;;;30.68;49.63;99860.25;3585610;40;20081;-49
2021/06/21 08:38:11;;;;;;;14.95;9.70;;;;;;;30.11;49.93;99861.56;3586355;39;20103;-56
2021/06/21 08:40:39;;;;;;;12.27;9.13;;;;;;;29.46;52.93;99863.34;3587167;39;20060;-61
2021/06/21 08:43:06;;;;;;;9.75;8.77;;;;;;;29.37;52.56;99856.88;3584974;40;20085;-49
2021/06/21 08:45:34;;;;;;;14.98;8.55;;;;;;;29.66;52.97;99857.63;3585471;40;20134;-55
2021/06/21 08:48:06;;;;;;;10.55;7.97;;;;;;;29.80;54.00;99864.59;3586692;39;20052;-53
2021/06/21 08:50:38;;;;;;;9.77;7.75;;;;;;;29.32;52.88;99859.81;3646009;22;20540;-52
2021/06/21 08:53:06;;;;;;;11.70;5.80;;;;;;;29.36;51.37;99856.03;3582734;40;20064;-51
2021/06/21 08:55:33;;;;;;;10.05;6.28;;;;;;;29.32;51.27;99866.91;3582938;40;20048;-50
2021/06/21 08:58:03;;;;;;;7.18;6.45;;;;;;;29.55;50.04;99865.41;3582706;40;20036;-52
2021/06/21 09:00:35;;;;;;;11.23;6.38;;;;;;;29.66;50.60;99863.75;3582959;40;20314;-54
2021/06/21 09:03:03;;;;;;;9.90;6.60;;;;;;;29.38;50.74;99861.22;3579902;40;20059;-50
2021/06/21 09:05:35;;;;;;;10.68;6.47;;;;;;;29.76;50.43;99877.16;3581511;40;20290;-48
2021/06/21 09:08:06;;;;;;;8.23;5.85;;;;;;;29.36;49.90;99871.88;3579531;40;20037;-52
2021/06/21 09:10:38;;;;;;;6.43;5.40;;;;;;;29.29;50.88;99877.63;3581366;40;20056;-50
2021/06/21 09:13:16;;;;;;;9.43;5.53;;;;;;;29.64;50.95;99876.19;3576779;40;20045;-48
2021/06/21 09:15:48;;;;;;;9.82;5.30;;;;;;;29.67;49.90;99891.84;3580715;40;20072;-48
2021/06/21 09:18:25;;;;;;;7.30;5.25;;;;;;;29.33;50.46;99873.88;3577552;40;20054;-52
2021/06/21 09:21:24;;;;;;;10.43;5.28;;;;;;;29.35;50.48;99875.47;3580309;40;20108;-55
2021/06/21 09:24:29;;;;;;;12.98;5.18;;;;;;;29.89;51.15;99888.59;3579827;40;20060;-50
2021/06/21 09:26:58;;;;;;;9.55;5.63;;;;;;;30.09;48.86;99887.25;3577026;40;20045;-50
2021/06/21 09:29:40;;;;;;;7.40;4.80;;;;;;;30.26;48.74;99891.41;3569543;40;20073;-47
2021/06/21 09:32:41;;;;;;;8.20;4.72;;;;;;;30.30;47.69;99890.22;3572202;40;20334;-48
2021/06/21 09:35:29;;;;;;;7.60;4.57;;;;;;;30.22;48.44;99883.78;3575340;40;20085;-51
2021/06/21 09:38:13;;;;;;;9.55;4.53;;;;;;;30.46;46.36;99878.59;3573741;40;20037;-53
2021/06/21 09:40:51;;;;;;;6.63;4.22;;;;;;;30.88;46.19;99885.34;3580609;40;20059;-51
2021/06/21 09:43:26;;;;;;;8.60;4.00;;;;;;;31.32;46.22;99868.88;3576912;40;20078;-52
2021/06/21 09:46:15;;;;;;;6.88;3.92;;;;;;;31.38;44.36;99865.78;3579971;40;20048;-53
2021/06/21 09:48:51;;;;;;;6.95;3.63;;;;;;;32.06;41.90;99879.25;3577862;40;20052;-55
2021/06/21 09:51:26;;;;;;;6.32;3.90;;;;;;;32.39;42.33;99887.25;3580552;40;20481;-53
2021/06/21 09:54:11;;;;;;;7.30;3.75;;;;;;;31.35;43.36;99879.25;3580187;40;20075;-50
2021/06/21 09:56:48;;;;;;;7.25;3.60;;;;;;;32.43;41.74;99888.72;3577542;40;20044;-50
2021/06/21 09:59:25;;;;;;;4.05;3.40;;;;;;;32.10;42.99;99876.25;3580476;40;20045;-51
2021/06/21 10:02:07;;;;;;;6.93;2.95;;;;;;;31.87;42.30;99885.13;3579715;40;20067;-54
2021/06/21 10:04:37;;;;;;;6.63;2.95;;;;;;;32.33;42.11;99878.91;3576131;40;20051;-47
2021/06/21 10:07:06;;;;;;;5.03;2.53;;;;;;;32.59;41.84;99882.22;3579285;40;20052;-49
2021/06/21 10:09:33;;;;;;;4.30;2.58;;;;;;;31.91;41.64;99868.03;3580523;40;20041;-51
2021/06/21 10:12:01;;;;;;;3.67;2.22;;;;;;;32.55;41.00;99881.59;3579369;40;20384;-50
2021/06/21 10:14:28;;;;;;;4.25;2.60;;;;;;;33.63;39.19;99877.28;3580551;40;20089;-54
2021/06/21 10:16:57;;;;;;;5.63;2.08;;;;;;;33.06;38.73;99889.03;3579116;40;20520;-54
2021/06/21 10:19:25;;;;;;;5.70;2.30;;;;;;;32.53;40.58;99880.88;3574597;40;20041;-52
2021/06/21 10:21:54;;;;;;;5.53;3.17;;;;;;;32.55;39.82;99880.78;3579523;40;20100;-53
2021/06/21 10:24:26;;;;;;;3.95;2.13;;;;;;;33.51;39.97;99888.06;3574232;40;20056;-48
2021/06/21 10:26:53;;;;;;;5.93;2.42;;;;;;;34.52;36.39;99890.13;3579506;40;20076;-47
2021/06/21 10:29:21;;;;;;;4.25;1.98;;;;;;;35.03;34.76;99891.84;3577209;40;20096;-53
2021/06/21 10:31:49;;;;;;;7.13;2.60;;;;;;;33.80;37.67;99896.28;3579941;40;20398;-49
2021/06/21 10:34:18;;;;;;;4.72;2.33;;;;;;;37.04;32.11;99904.16;3580198;40;20068;-51
2021/06/21 10:36:51;;;;;;;4.63;2.45;;;;;;;38.00;30.03;99904.38;3580503;40;20092;-56
2021/06/21 10:39:22;;;;;;;4.18;1.98;;;;;;;39.04;29.32;99903.41;3581528;40;20116;-54
2021/06/21 10:42:04;;;;;;;4.00;2.60;;;;;;;39.13;29.28;99907.78;3581058;40;20056;-55
2021/06/21 10:44:40;;;;;;;5.75;2.78;;;;;;;40.91;26.87;99916.66;3577168;40;20417;-54
2021/06/21 10:47:31;;;;;;;4.97;2.90;;;;;;;40.22;27.73;99911.03;3581102;40;20350;-52
2021/06/21 10:50:19;;;;;;;4.20;2.35;;;;;;;41.45;27.22;99911.28;3580783;40;20103;-50
2021/06/21 10:52:57;;;;;;;3.58;2.78;;;;;;;41.56;25.99;99914.59;3581188;40;20044;-49
2021/06/21 10:55:28;;;;;;;5.32;2.80;;;;;;;39.76;28.49;99901.84;3576099;40;20081;-52
2021/06/21 10:57:57;;;;;;;5.75;2.70;;;;;;;41.93;25.46;99903.00;3580685;40;20060;-47
2021/06/21 11:00:38;;;;;;;5.57;3.20;;;;;;;42.18;24.35;99915.19;3576176;40;20093;-50
2021/06/21 11:03:26;;;;;;;5.07;3.15;;;;;;;42.53;23.87;99911.97;3580527;40;20056;-53
2021/06/21 11:06:03;;;;;;;5.43;2.80;;;;;;;41.60;26.17;99905.13;3580872;40;20092;-51
2021/06/21 11:08:41;;;;;;;5.57;3.38;;;;;;;41.41;25.46;99904.59;3576646;40;20063;-51
2021/06/21 11:11:36;;;;;;;5.82;2.70;;;;;;;41.14;26.72;99899.72;3580519;40;20085;-48
2021/06/21 11:14:07;;;;;;;5.50;3.17;;;;;;;40.67;26.32;99906.00;3580607;40;20370;-48
2021/06/21 11:16:35;;;;;;;5.70;3.10;;;;;;;41.64;25.88;99903.75;3581786;40;20342;-47
2021/06/21 11:19:21;;;;;;;7.88;3.47;;;;;;;40.05;28.65;99900.47;3580547;40;20053;-49
2021/06/21 11:21:53;;;;;;;4.70;2.63;;;;;;;43.90;23.52;99907.44;3580979;40;20544;-51
2021/06/21 11:24:50;;;;;;;9.05;3.58;;;;;;;42.97;24.88;99903.81;3581530;40;20064;-55
2021/06/21 11:27:26;;;;;;;5.97;3.25;;;;;;;43.11;24.70;99902.13;3572631;40;20064;-49
2021/06/21 11:30:01;;;;;;;5.40;2.60;;;;;;;44.40;22.70;99910.88;3580927;40;20048;-50
2021/06/21 11:32:28;;;;;;;7.35;3.15;;;;;;;42.93;23.18;99907.91;3576187;40;20061;-47
2021/06/21 11:35:01;;;;;;;8.15;3.17;;;;;;;42.85;23.74;99902.63;3580647;40;20064;-49
2021/06/21 11:37:29;;;;;;;5.47;3.28;;;;;;;43.03;22.82;99900.38;3581595;40;20185;-57
2021/06/21 11:40:12;;;;;;;5.75;3.08;;;;;;;42.95;24.65;99898.63;3580511;40;20103;-52
2021/06/21 11:42:41;;;;;;;9.55;3.65;;;;;;;44.52;21.74;99894.94;3576826;40;20386;-47